Time,TemperatureF,DewpointF,PressureIn,WindDirection,WindDirectionDegrees,WindSpeedMPH,WindSpeedGustMPH,Humidity,HourlyPrecipIn,Conditions,Clouds,dailyrainin,SoftwareType,DateUTC
2013-05-20 00:00:00,51.0,49.3,30.37,SE,124,0.0,0.0,94,0.00,,---,0.19,VWS V13.00,2013-05-20 07:00:00,
2013-05-20 00:05:00,50.7,49.0,30.37,SE,124,0.0,0.0,94,0.00,,---,0.19,VWS V13.00,2013-05-20 07:05:00,
2013-05-20 00:10:00,50.5,48.8,30.37,SE,124,0.0,0.0,94,0.00,,---,0.00,VWS V13.00,2013-05-20 07:10:00,
2013-05-20 00:15:00,50.4,48.7,30.37,SE,124,0.0,0.0,94,0.00,,---,0.00,VWS V13.00,2013-05-20 07:15:00,
2013-05-20 00:20:00,50.1,48.4,30.37,SE,124,0.0,0.0,94,0.00,,---,0.00,VWS V13.00,2013-05-20 07:20:00,
2013-05-20 00:25:00,49.9,48.2,30.37,SE,124,0.0,0.0,94,0.00,,---,0.00,VWS V13.00,2013-05-20 07:25:00,
2013-05-20 00:30:00,49.8,48.2,30.37,SE,124,0.0,0.0,94,0.00,,---,0.00,VWS V13.00,2013-05-20 07:30:00,
2013-05-20 00:35:00,49.5,47.8,30.37,SE,124,0.0,0.0,94,0.00,,---,0.00,VWS V13.00,2013-05-20 07:35:00,
2013-05-20 00:40:00,49.4,47.8,30.37,SE,124,0.0,0.0,94,0.00,,---,0.00,VWS V13.00,2013-05-20 07:40:00,
2013-05-20 00:45:00,49.2,47.5,30.37,SE,124,0.0,0.0,94,0.00,,---,0.00,VWS V13.00,2013-05-20 07:45:00,
2013-05-20 00:50:00,49.2,47.5,30.38,SE,124,0.0,0.0,94,0.00,,---,0.00,VWS V13.00,2013-05-20 07:50:00,
2013-05-20 00:55:00,49.1,47.5,30.38,SE,124,0.0,0.0,94,0.00,,---,0.00,VWS V13.00,2013-05-20 07:55:00,
2013-05-20 01:00:00,48.9,47.2,30.38,SE,124,0.0,0.0,94,0.00,,---,0.00,VWS V13.00,2013-05-20 08:00:00,
2013-05-20 01:05:00,48.9,47.2,30.38,SE,124,0.0,0.0,94,0.00,,---,0.00,VWS V13.00,2013-05-20 08:05:00,
2013-05-20 01:10:00,48.8,47.2,30.38,SE,124,0.0,0.0,94,0.00,,---,0.00,VWS V13.00,2013-05-20 08:10:00,
2013-05-20 01:15:00,48.8,47.2,30.38,SE,124,0.0,0.0,94,0.00,,---,0.00,VWS V13.00,2013-05-20 08:15:00,
2013-05-20 01:20:00,48.8,47.4,30.38,SE,124,0.0,0.0,95,0.00,,---,0.00,VWS V13.00,2013-05-20 08:20:00,
2013-05-20 01:25:00,48.9,47.5,30.38,SE,124,0.0,0.0,95,0.00,,---,0.00,VWS V13.00,2013-05-20 08:25:00,
2013-05-20 01:30:00,48.9,47.5,30.38,SE,124,0.0,0.0,95,0.00,,---,0.00,VWS V13.00,2013-05-20 08:30:00,
2013-05-20 01:35:00,48.9,47.5,30.38,SE,124,0.0,0.0,95,0.00,,---,0.00,VWS V13.00,2013-05-20 08:35:00,
2013-05-20 01:40:00,48.9,47.5,30.38,SE,124,0.0,0.0,95,0.00,,---,0.00,VWS V13.00,2013-05-20 08:40:00,
2013-05-20 01:45:00,48.9,47.5,30.38,SE,124,0.0,0.0,95,0.00,,---,0.00,VWS V13.00,2013-05-20 08:45:00,
2013-05-20 01:50:00,48.8,47.4,30.38,SE,124,0.0,0.0,95,0.00,,---,0.00,VWS V13.00,2013-05-20 08:50:00,
2013-05-20 01:55:00,48.8,47.4,30.38,SE,124,0.0,0.0,95,0.00,,---,0.00,VWS V13.00,2013-05-20 08:55:00,
2013-05-20 02:00:00,48.8,47.4,30.38,SE,124,0.0,0.0,95,0.00,,---,0.00,VWS V13.00,2013-05-20 09:00:00,
2013-05-20 02:05:00,48.9,47.5,30.38,SE,124,0.0,0.0,95,0.00,,---,0.00,VWS V13.00,2013-05-20 09:05:00,
2013-05-20 02:10:00,48.9,47.5,30.38,SE,124,0.0,0.0,95,0.00,,---,0.00,VWS V13.00,2013-05-20 09:10:00,
2013-05-20 02:15:00,48.9,47.5,30.38,SE,124,0.0,0.0,95,0.00,,---,0.00,VWS V13.00,2013-05-20 09:15:00,
2013-05-20 02:20:00,48.9,47.5,30.38,SE,124,0.0,0.0,95,0.00,,---,0.00,VWS V13.00,2013-05-20 09:20:00,
2013-05-20 02:25:00,48.9,47.5,30.38,SE,124,0.0,0.0,95,0.00,,---,0.00,VWS V13.00,2013-05-20 09:25:00,
2013-05-20 02:30:00,48.9,47.5,30.38,SE,124,0.0,0.0,95,0.00,,---,0.00,VWS V13.00,2013-05-20 09:30:00,
2013-05-20 02:35:00,48.9,47.5,30.38,SE,124,0.0,0.0,95,0.00,,---,0.00,VWS V13.00,2013-05-20 09:35:00,
2013-05-20 02:40:00,48.9,47.5,30.38,SE,124,0.0,0.0,95,0.00,,---,0.00,VWS V13.00,2013-05-20 09:40:00,
2013-05-20 02:45:00,48.9,47.5,30.38,SE,124,0.0,0.0,95,0.00,,---,0.00,VWS V13.00,2013-05-20 09:45:00,
2013-05-20 02:50:00,48.9,47.5,30.38,SE,124,0.0,0.0,95,0.00,,---,0.00,VWS V13.00,2013-05-20 09:50:00,
2013-05-20 02:55:00,48.9,47.5,30.38,SE,124,0.0,0.0,95,0.00,,---,0.00,VWS V13.00,2013-05-20 09:55:00,
2013-05-20 03:00:00,48.9,47.5,30.38,SE,124,0.0,0.0,95,0.00,,---,0.00,VWS V13.00,2013-05-20 10:00:00,
2013-05-20 03:05:00,48.9,47.5,30.37,SE,124,0.0,0.0,95,0.00,,---,0.00,VWS V13.00,2013-05-20 10:05:00,
2013-05-20 03:10:00,48.9,47.5,30.37,SE,124,0.0,0.0,95,0.00,,---,0.00,VWS V13.00,2013-05-20 10:10:00,
2013-05-20 03:15:00,48.9,47.5,30.37,SE,124,0.0,0.0,95,0.00,,---,0.00,VWS V13.00,2013-05-20 10:15:00,
2013-05-20 03:20:00,48.9,47.5,30.37,SE,124,0.0,0.0,95,0.00,,---,0.00,VWS V13.00,2013-05-20 10:20:00,
2013-05-20 03:25:00,48.8,47.4,30.37,SE,124,0.0,0.0,95,0.00,,---,0.00,VWS V13.00,2013-05-20 10:25:00,
2013-05-20 03:30:00,48.8,47.4,30.37,SE,124,0.0,0.0,95,0.00,,---,0.00,VWS V13.00,2013-05-20 10:30:00,
2013-05-20 03:35:00,48.8,47.4,30.36,SE,124,0.0,0.0,95,0.00,,---,0.00,VWS V13.00,2013-05-20 10:35:00,
2013-05-20 03:40:00,48.8,47.4,30.36,SE,124,0.0,0.0,95,0.00,,---,0.00,VWS V13.00,2013-05-20 10:40:00,
2013-05-20 03:45:00,48.6,47.2,30.36,SE,124,0.0,0.0,95,0.00,,---,0.00,VWS V13.00,2013-05-20 10:45:00,
2013-05-20 03:50:00,48.6,47.2,30.36,SE,124,0.0,0.0,95,0.00,,---,0.00,VWS V13.00,2013-05-20 10:50:00,
2013-05-20 03:55:00,48.6,47.2,30.36,SE,124,0.0,0.0,95,0.00,,---,0.00,VWS V13.00,2013-05-20 10:55:00,
2013-05-20 04:00:00,48.6,47.2,30.36,SE,124,0.0,0.0,95,0.00,,---,0.00,VWS V13.00,2013-05-20 11:00:00,
2013-05-20 04:05:00,48.6,47.2,30.35,SE,124,0.0,0.0,95,0.00,,---,0.00,VWS V13.00,2013-05-20 11:05:00,
2013-05-20 04:10:00,48.5,47.1,30.35,SE,124,0.0,0.0,95,0.00,,---,0.00,VWS V13.00,2013-05-20 11:10:00,
2013-05-20 04:15:00,48.5,47.1,30.35,SE,124,0.0,0.0,95,0.00,,---,0.00,VWS V13.00,2013-05-20 11:15:00,
2013-05-20 04:20:00,48.5,47.1,30.34,SE,124,0.0,0.0,95,0.00,,---,0.00,VWS V13.00,2013-05-20 11:20:00,
2013-05-20 04:25:00,48.5,47.1,30.34,SE,124,0.0,0.0,95,0.00,,---,0.00,VWS V13.00,2013-05-20 11:25:00,
2013-05-20 04:30:00,48.3,46.9,30.34,SE,124,0.0,0.0,95,0.00,,---,0.00,VWS V13.00,2013-05-20 11:30:00,
2013-05-20 04:35:00,48.3,46.9,30.34,SE,124,0.0,0.0,95,0.00,,---,0.00,VWS V13.00,2013-05-20 11:35:00,
2013-05-20 04:40:00,48.3,46.9,30.34,SE,124,0.0,0.0,95,0.00,,---,0.00,VWS V13.00,2013-05-20 11:40:00,
2013-05-20 04:45:00,48.3,46.9,30.34,SE,124,0.0,0.0,95,0.00,,---,0.00,VWS V13.00,2013-05-20 11:45:00,
2013-05-20 04:50:00,48.2,46.8,30.34,SE,124,0.0,0.0,95,0.00,,---,0.00,VWS V13.00,2013-05-20 11:50:00,
2013-05-20 04:55:00,48.2,46.8,30.34,SE,124,0.0,0.0,95,0.00,,---,0.00,VWS V13.00,2013-05-20 11:55:00,
2013-05-20 05:00:00,48.2,46.8,30.34,SE,124,0.0,0.0,95,0.00,,---,0.00,VWS V13.00,2013-05-20 12:00:00,
2013-05-20 05:05:00,48.2,46.8,30.33,SE,124,0.0,0.0,95,0.00,,---,0.00,VWS V13.00,2013-05-20 12:05:00,
2013-05-20 05:10:00,48.0,46.6,30.33,SE,124,0.0,0.0,95,0.00,,---,0.00,VWS V13.00,2013-05-20 12:10:00,
2013-05-20 05:15:00,48.0,46.6,30.33,SE,124,0.0,0.0,95,0.00,,---,0.00,VWS V13.00,2013-05-20 12:15:00,
2013-05-20 05:20:00,48.0,46.6,30.33,SE,124,0.0,0.0,95,0.00,,---,0.00,VWS V13.00,2013-05-20 12:20:00,
2013-05-20 05:25:00,48.0,46.6,30.33,SE,124,0.0,0.0,95,0.00,,---,0.00,VWS V13.00,2013-05-20 12:25:00,
2013-05-20 05:30:00,48.0,46.6,30.33,SE,124,0.0,0.0,95,0.00,,---,0.00,VWS V13.00,2013-05-20 12:30:00,
2013-05-20 05:35:00,48.0,46.6,30.32,SE,124,0.0,0.0,95,0.00,,---,0.00,VWS V13.00,2013-05-20 12:35:00,
2013-05-20 05:40:00,47.9,46.5,30.32,ESE,123,0.0,0.0,95,0.00,,---,0.00,VWS V13.00,2013-05-20 12:40:00,
2013-05-20 05:45:00,47.9,46.5,30.32,ESE,123,0.0,0.0,95,0.00,,---,0.00,VWS V13.00,2013-05-20 12:45:00,
2013-05-20 05:50:00,47.9,46.5,30.32,ESE,123,0.0,0.0,95,0.00,,---,0.00,VWS V13.00,2013-05-20 12:50:00,
2013-05-20 05:55:00,47.9,46.5,30.32,ESE,123,0.0,0.0,95,0.00,,---,0.00,VWS V13.00,2013-05-20 12:55:00,
2013-05-20 06:00:00,47.9,46.5,30.32,ESE,123,0.0,0.0,95,0.00,,---,0.00,VWS V13.00,2013-05-20 13:00:00,
2013-05-20 06:05:00,47.9,46.5,30.31,ESE,123,0.0,0.0,95,0.00,,---,0.00,VWS V13.00,2013-05-20 13:05:00,
2013-05-20 06:10:00,47.9,46.5,30.31,ESE,123,0.0,0.0,95,0.00,,---,0.00,VWS V13.00,2013-05-20 13:10:00,
2013-05-20 06:15:00,47.9,46.5,30.31,ESE,123,0.0,0.0,95,0.00,,---,0.00,VWS V13.00,2013-05-20 13:15:00,
2013-05-20 06:20:00,47.9,46.5,30.31,ESE,123,0.0,0.0,95,0.00,,---,0.00,VWS V13.00,2013-05-20 13:20:00,
2013-05-20 06:25:00,48.0,46.6,30.31,ESE,123,0.0,0.0,95,0.00,,---,0.00,VWS V13.00,2013-05-20 13:25:00,
2013-05-20 06:30:00,48.0,46.6,30.31,ESE,123,0.0,0.0,95,0.00,,---,0.00,VWS V13.00,2013-05-20 13:30:00,
2013-05-20 06:35:00,47.9,46.5,30.31,ESE,123,0.0,0.0,95,0.00,,---,0.00,VWS V13.00,2013-05-20 13:35:00,
2013-05-20 06:40:00,47.9,46.5,30.31,ESE,123,0.0,0.0,95,0.00,,---,0.00,VWS V13.00,2013-05-20 13:40:00,
2013-05-20 06:45:00,48.0,46.6,30.31,ESE,123,0.0,0.0,95,0.00,,---,0.00,VWS V13.00,2013-05-20 13:45:00,
2013-05-20 06:50:00,48.0,46.6,30.31,ESE,123,0.0,0.0,95,0.00,,---,0.00,VWS V13.00,2013-05-20 13:50:00,
2013-05-20 06:55:00,48.0,46.6,30.31,ESE,123,0.0,0.0,95,0.00,,---,0.00,VWS V13.00,2013-05-20 13:55:00,
2013-05-20 07:00:00,48.2,46.8,30.31,ESE,123,0.0,0.0,95,0.00,,---,0.00,VWS V13.00,2013-05-20 14:00:00,
2013-05-20 07:05:00,48.2,46.8,30.31,ESE,123,0.0,0.0,95,0.00,,---,0.00,VWS V13.00,2013-05-20 14:05:00,
2013-05-20 07:10:00,48.3,46.9,30.31,ESE,123,0.0,0.0,95,0.00,,---,0.00,VWS V13.00,2013-05-20 14:10:00,
2013-05-20 07:15:00,48.5,47.1,30.31,ESE,123,0.0,0.0,95,0.00,,---,0.00,VWS V13.00,2013-05-20 14:15:00,
2013-05-20 07:20:00,48.3,46.9,30.31,ESE,123,0.0,1.0,95,0.00,,---,0.00,VWS V13.00,2013-05-20 14:20:00,
2013-05-20 07:25:00,48.5,47.1,30.31,ESE,123,0.0,1.0,95,0.00,,---,0.00,VWS V13.00,2013-05-20 14:25:00,
2013-05-20 07:30:00,48.5,47.1,30.31,ESE,123,0.0,1.0,95,0.00,,---,0.00,VWS V13.00,2013-05-20 14:30:00,
2013-05-20 07:35:00,48.6,47.2,30.30,ESE,123,0.0,1.0,95,0.00,,---,0.00,VWS V13.00,2013-05-20 14:35:00,
2013-05-20 07:40:00,48.6,47.2,30.30,ESE,123,0.0,0.0,95,0.00,,---,0.00,VWS V13.00,2013-05-20 14:40:00,
2013-05-20 07:45:00,48.8,47.4,30.30,ESE,123,0.0,0.0,95,0.00,,---,0.00,VWS V13.00,2013-05-20 14:45:00,
2013-05-20 07:50:00,48.9,47.5,30.30,ESE,123,0.0,0.0,95,0.00,,---,0.00,VWS V13.00,2013-05-20 14:50:00,
2013-05-20 07:55:00,48.9,47.5,30.29,ESE,123,0.0,0.0,95,0.00,,---,0.00,VWS V13.00,2013-05-20 14:55:00,
2013-05-20 08:00:00,48.9,47.5,30.29,ESE,123,0.0,0.0,95,0.00,,---,0.00,VWS V13.00,2013-05-20 15:00:00,
2013-05-20 08:05:00,49.1,47.7,30.29,ESE,123,0.0,0.0,95,0.00,,---,0.00,VWS V13.00,2013-05-20 15:05:00,
2013-05-20 08:10:00,49.2,47.8,30.29,ESE,123,0.0,0.0,95,0.00,,---,0.00,VWS V13.00,2013-05-20 15:10:00,
2013-05-20 08:15:00,49.2,47.8,30.29,ESE,123,0.0,0.0,95,0.00,,---,0.00,VWS V13.00,2013-05-20 15:15:00,
2013-05-20 08:20:00,49.4,48.0,30.29,ESE,123,0.0,0.0,95,0.00,,---,0.00,VWS V13.00,2013-05-20 15:20:00,
2013-05-20 08:25:00,49.4,47.8,30.29,ESE,123,0.0,0.0,94,0.00,,---,0.00,VWS V13.00,2013-05-20 15:25:00,
2013-05-20 08:30:00,49.5,48.1,30.29,ESE,123,0.0,0.0,95,0.00,,---,0.00,VWS V13.00,2013-05-20 15:30:00,
2013-05-20 08:35:00,49.6,48.0,30.29,ESE,123,0.0,0.0,94,0.00,,---,0.00,VWS V13.00,2013-05-20 15:35:00,
2013-05-20 08:40:00,49.8,48.2,30.28,ESE,123,0.0,0.0,94,0.00,,---,0.00,VWS V13.00,2013-05-20 15:40:00,
2013-05-20 08:45:00,49.9,48.2,30.28,ESE,123,0.0,0.0,94,0.00,,---,0.00,VWS V13.00,2013-05-20 15:45:00,
2013-05-20 08:50:00,49.9,48.2,30.28,ESE,123,0.0,0.0,94,0.00,,---,0.00,VWS V13.00,2013-05-20 15:50:00,
2013-05-20 08:55:00,49.9,48.2,30.28,ESE,123,0.0,0.0,94,0.00,,---,0.00,VWS V13.00,2013-05-20 15:55:00,
2013-05-20 09:00:00,49.9,48.0,30.28,ESE,123,0.0,0.0,93,0.00,,---,0.00,VWS V13.00,2013-05-20 16:00:00,
2013-05-20 09:05:00,50.2,48.5,30.28,ESE,123,0.0,0.0,94,0.00,,---,0.00,VWS V13.00,2013-05-20 16:05:00,
2013-05-20 09:10:00,50.4,48.5,30.28,ESE,123,0.0,0.0,93,0.00,,---,0.00,VWS V13.00,2013-05-20 16:10:00,
2013-05-20 09:15:00,50.5,48.6,30.28,ESE,123,0.0,0.0,93,0.00,,---,0.00,VWS V13.00,2013-05-20 16:15:00,
2013-05-20 09:20:00,50.8,48.8,30.28,ESE,123,0.0,0.0,93,0.00,,---,0.00,VWS V13.00,2013-05-20 16:20:00,
2013-05-20 09:25:00,51.1,48.9,30.28,ESE,123,0.0,0.0,92,0.00,,---,0.00,VWS V13.00,2013-05-20 16:25:00,
2013-05-20 09:30:00,51.3,49.1,30.28,ESE,123,0.0,0.0,92,0.00,,---,0.00,VWS V13.00,2013-05-20 16:30:00,
2013-05-20 09:35:00,51.4,48.9,30.28,ESE,123,0.0,0.0,91,0.00,,---,0.00,VWS V13.00,2013-05-20 16:35:00,
2013-05-20 09:40:00,51.6,49.1,30.27,ESE,123,0.0,0.0,91,0.00,,---,0.00,VWS V13.00,2013-05-20 16:40:00,
2013-05-20 09:45:00,51.7,48.9,30.27,ESE,123,0.0,0.0,90,0.00,,---,0.00,VWS V13.00,2013-05-20 16:45:00,
2013-05-20 09:50:00,52.0,49.2,30.27,ESE,123,0.0,0.0,90,0.00,,---,0.00,VWS V13.00,2013-05-20 16:50:00,
2013-05-20 09:55:00,52.2,49.1,30.26,ESE,123,0.0,0.0,89,0.00,,---,0.00,VWS V13.00,2013-05-20 16:55:00,
2013-05-20 10:00:00,52.5,49.4,30.26,ESE,123,0.0,0.0,89,0.00,,---,0.00,VWS V13.00,2013-05-20 17:00:00,
2013-05-20 10:05:00,53.1,49.7,30.26,ESE,123,0.0,0.0,88,0.00,,---,0.00,VWS V13.00,2013-05-20 17:05:00,
2013-05-20 10:10:00,53.3,50.2,30.26,ESE,123,0.0,0.0,89,0.00,,---,0.00,VWS V13.00,2013-05-20 17:10:00,
2013-05-20 10:15:00,53.5,49.4,30.26,ESE,123,0.0,0.0,86,0.00,,---,0.00,VWS V13.00,2013-05-20 17:15:00,
2013-05-20 10:20:00,53.6,48.9,30.26,West,272,0.0,2.0,84,0.00,,---,0.00,VWS V13.00,2013-05-20 17:20:00,
2013-05-20 10:25:00,53.8,48.8,30.25,West,272,0.0,2.0,83,0.00,,---,0.00,VWS V13.00,2013-05-20 17:25:00,
2013-05-20 10:30:00,53.9,49.2,30.25,West,272,0.0,2.0,84,0.00,,---,0.00,VWS V13.00,2013-05-20 17:30:00,
2013-05-20 10:35:00,54.1,49.7,30.25,West,272,0.0,2.0,85,0.00,,---,0.00,VWS V13.00,2013-05-20 17:35:00,
2013-05-20 10:40:00,54.1,49.1,30.24,West,272,0.0,0.0,83,0.00,,---,0.00,VWS V13.00,2013-05-20 17:40:00,
2013-05-20 10:45:00,54.1,48.7,30.24,West,272,0.0,1.0,82,0.00,,---,0.00,VWS V13.00,2013-05-20 17:45:00,
2013-05-20 10:50:00,54.2,48.8,30.24,West,272,0.0,1.0,82,0.00,,---,0.00,VWS V13.00,2013-05-20 17:50:00,
2013-05-20 10:55:00,54.2,48.8,30.23,West,272,0.0,1.0,82,0.00,,---,0.00,VWS V13.00,2013-05-20 17:55:00,
2013-05-20 11:00:00,54.4,48.4,30.23,WNW,289,0.0,1.0,80,0.00,,---,0.00,VWS V13.00,2013-05-20 18:00:00,
2013-05-20 11:05:00,54.8,49.4,30.23,WNW,289,0.0,1.0,82,0.00,,---,0.00,VWS V13.00,2013-05-20 18:05:00,
2013-05-20 11:10:00,55.7,50.6,30.22,WNW,289,0.0,0.0,83,0.00,,---,0.00,VWS V13.00,2013-05-20 18:10:00,
2013-05-20 11:15:00,56.2,50.1,30.22,WNW,291,0.0,0.0,80,0.00,,---,0.00,VWS V13.00,2013-05-20 18:15:00,
2013-05-20 11:20:00,56.6,50.5,30.22,ENE,68,0.0,2.0,80,0.00,,---,0.00,VWS V13.00,2013-05-20 18:20:00,
2013-05-20 11:25:00,56.7,50.6,30.22,ENE,58,0.0,2.0,80,0.00,,---,0.00,VWS V13.00,2013-05-20 18:25:00,
2013-05-20 11:30:00,57.0,50.6,30.22,ENE,58,0.0,2.0,79,0.00,,---,0.00,VWS V13.00,2013-05-20 18:30:00,
2013-05-20 11:35:00,57.2,50.4,30.22,NNW,346,0.0,2.0,78,0.00,,---,0.00,VWS V13.00,2013-05-20 18:35:00,
2013-05-20 11:40:00,57.0,49.9,30.21,NNW,346,0.0,0.0,77,0.00,,---,0.00,VWS V13.00,2013-05-20 18:40:00,
2013-05-20 11:45:00,57.0,49.2,30.21,East,88,2.0,2.0,75,0.00,,---,0.00,VWS V13.00,2013-05-20 18:45:00,
2013-05-20 11:50:00,57.3,49.5,30.21,East,86,0.0,2.0,75,0.00,,---,0.00,VWS V13.00,2013-05-20 18:50:00,
2013-05-20 11:55:00,58.1,50.2,30.21,North,0,0.0,2.0,75,0.00,,---,0.00,VWS V13.00,2013-05-20 18:55:00,
2013-05-20 12:00:00,58.0,49.8,30.21,North,3,0.0,2.0,74,0.00,,---,0.00,VWS V13.00,2013-05-20 19:00:00,
2013-05-20 12:05:00,58.1,49.5,30.21,North,3,0.0,2.0,73,0.00,,---,0.00,VWS V13.00,2013-05-20 19:05:00,
2013-05-20 12:10:00,58.7,49.0,30.20,North,3,0.0,0.0,70,0.00,,---,0.00,VWS V13.00,2013-05-20 19:10:00,
2013-05-20 12:15:00,59.3,51.8,30.20,NNE,27,0.0,3.0,76,0.00,,---,0.00,VWS V13.00,2013-05-20 19:15:00,
2013-05-20 12:20:00,59.8,50.4,30.20,NNE,20,0.0,3.0,71,0.00,,---,0.00,VWS V13.00,2013-05-20 19:20:00,
2013-05-20 12:25:00,60.4,51.3,30.20,North,10,0.0,3.0,72,0.00,,---,0.00,VWS V13.00,2013-05-20 19:25:00,
2013-05-20 12:30:00,60.2,49.6,30.20,NNW,335,0.0,3.0,68,0.00,,---,0.00,VWS V13.00,2013-05-20 19:30:00,
2013-05-20 12:35:00,60.1,53.2,30.20,NNW,335,0.0,3.0,78,0.00,,---,0.00,VWS V13.00,2013-05-20 19:35:00,
2013-05-20 12:40:00,59.6,49.8,30.20,ENE,62,0.0,1.0,70,0.00,,---,0.00,VWS V13.00,2013-05-20 19:40:00,
2013-05-20 12:45:00,59.8,50.8,30.20,ENE,62,0.0,1.0,72,0.00,,---,0.00,VWS V13.00,2013-05-20 19:45:00,
2013-05-20 12:50:00,59.8,51.9,30.20,ENE,62,0.0,1.0,75,0.00,,---,0.00,VWS V13.00,2013-05-20 19:50:00,
2013-05-20 12:55:00,59.2,49.4,30.19,North,0,0.0,1.0,70,0.00,,---,0.00,VWS V13.00,2013-05-20 19:55:00,
2013-05-20 13:00:00,59.5,50.1,30.19,NW,304,0.0,1.0,71,0.00,,---,0.00,VWS V13.00,2013-05-20 20:00:00,
2013-05-20 13:05:00,59.2,48.7,30.19,SE,138,0.0,2.0,68,0.00,,---,0.00,VWS V13.00,2013-05-20 20:05:00,
2013-05-20 13:10:00,59.8,51.1,30.18,North,0,0.0,1.0,73,0.00,,---,0.00,VWS V13.00,2013-05-20 20:10:00,
2013-05-20 13:15:00,60.4,50.6,30.18,North,0,0.0,1.0,70,0.00,,---,0.00,VWS V13.00,2013-05-20 20:15:00,
2013-05-20 13:20:00,61.0,50.8,30.18,NW,323,0.0,2.0,69,0.00,,---,0.00,VWS V13.00,2013-05-20 20:20:00,
2013-05-20 13:25:00,62.4,54.0,30.17,North,0,0.0,2.0,74,0.00,,---,0.00,VWS V13.00,2013-05-20 20:25:00,
2013-05-20 13:30:00,61.8,49.9,30.17,ENE,78,0.0,3.0,65,0.00,,---,0.00,VWS V13.00,2013-05-20 20:30:00,
2013-05-20 13:35:00,61.2,49.3,30.17,SE,145,2.0,3.0,65,0.00,,---,0.00,VWS V13.00,2013-05-20 20:35:00,
2013-05-20 13:40:00,61.2,50.6,30.16,North,353,0.0,2.0,68,0.00,,---,0.00,VWS V13.00,2013-05-20 20:40:00,
2013-05-20 13:45:00,61.8,52.3,30.16,North,0,0.0,2.0,71,0.00,,---,0.00,VWS V13.00,2013-05-20 20:45:00,
2013-05-20 13:50:00,61.6,51.3,30.16,North,0,2.0,3.0,69,0.00,,---,0.00,VWS V13.00,2013-05-20 20:50:00,
2013-05-20 13:55:00,62.9,51.8,30.15,North,0,0.0,3.0,67,0.00,,---,0.00,VWS V13.00,2013-05-20 20:55:00,
2013-05-20 14:00:00,63.7,53.0,30.15,NNW,330,1.0,3.0,68,0.00,,---,0.00,VWS V13.00,2013-05-20 21:00:00,
2013-05-20 14:05:00,63.4,51.0,30.15,NNW,343,1.0,3.0,64,0.00,,---,0.00,VWS V13.00,2013-05-20 21:05:00,
2013-05-20 14:10:00,62.3,51.6,30.14,NE,37,0.0,1.0,68,0.00,,---,0.00,VWS V13.00,2013-05-20 21:10:00,
2013-05-20 14:15:00,63.1,50.3,30.14,NW,315,0.0,3.0,63,0.00,,---,0.00,VWS V13.00,2013-05-20 21:15:00,
2013-05-20 14:20:00,62.9,51.4,30.14,NE,48,0.0,3.0,66,0.00,,---,0.00,VWS V13.00,2013-05-20 21:20:00,
2013-05-20 14:25:00,63.1,52.0,30.13,NW,312,0.0,3.0,67,0.00,,---,0.00,VWS V13.00,2013-05-20 21:25:00,
2013-05-20 14:30:00,64.0,52.8,30.13,NW,323,0.0,3.0,67,0.00,,---,0.00,VWS V13.00,2013-05-20 21:30:00,
2013-05-20 14:35:00,65.0,53.4,30.13,NNW,340,0.0,3.0,66,0.00,,---,0.00,VWS V13.00,2013-05-20 21:35:00,
2013-05-20 14:40:00,65.2,52.7,30.12,NNW,340,0.0,0.0,64,0.00,,---,0.00,VWS V13.00,2013-05-20 21:40:00,
2013-05-20 14:45:00,65.8,53.3,30.12,North,0,0.0,0.0,64,0.00,,---,0.00,VWS V13.00,2013-05-20 21:45:00,
2013-05-20 14:50:00,66.4,55.5,30.12,NNW,346,0.0,0.0,68,0.00,,---,0.00,VWS V13.00,2013-05-20 21:50:00,
2013-05-20 14:55:00,66.0,53.1,30.11,North,353,0.0,0.0,63,0.00,,---,0.00,VWS V13.00,2013-05-20 21:55:00,
2013-05-20 15:00:00,64.8,51.5,30.11,SW,232,0.0,1.0,62,0.00,,---,0.00,VWS V13.00,2013-05-20 22:00:00,
2013-05-20 15:05:00,65.3,52.0,30.11,SSW,212,0.0,1.0,62,0.00,,---,0.00,VWS V13.00,2013-05-20 22:05:00,
2013-05-20 15:10:00,65.2,50.5,30.10,SSE,164,0.0,0.0,59,0.00,,---,0.00,VWS V13.00,2013-05-20 22:10:00,
2013-05-20 15:15:00,65.0,52.1,30.10,South,185,0.0,3.0,63,0.00,,---,0.00,VWS V13.00,2013-05-20 22:15:00,
2013-05-20 15:20:00,64.8,51.0,30.10,WSW,241,2.0,3.0,61,0.00,,---,0.00,VWS V13.00,2013-05-20 22:20:00,
2013-05-20 15:25:00,64.3,49.7,30.10,WSW,237,0.0,3.0,59,0.00,,---,0.00,VWS V13.00,2013-05-20 22:25:00,
2013-05-20 15:30:00,65.0,53.8,30.10,SE,136,0.0,3.0,67,0.00,,---,0.00,VWS V13.00,2013-05-20 22:30:00,
2013-05-20 15:35:00,66.3,53.8,30.10,NNW,335,0.0,3.0,64,0.00,,---,0.00,VWS V13.00,2013-05-20 22:35:00,
2013-05-20 15:40:00,66.4,52.6,30.09,NNW,335,0.0,0.0,61,0.00,,---,0.00,VWS V13.00,2013-05-20 22:40:00,
2013-05-20 15:45:00,65.8,52.4,30.09,South,181,0.0,0.0,62,0.00,,---,0.00,VWS V13.00,2013-05-20 22:45:00,
2013-05-20 15:50:00,65.3,49.7,30.09,North,353,0.0,1.0,57,0.00,,---,0.00,VWS V13.00,2013-05-20 22:50:00,
2013-05-20 15:55:00,65.2,52.7,30.08,NE,48,0.0,1.0,64,0.00,,---,0.00,VWS V13.00,2013-05-20 22:55:00,
2013-05-20 16:00:00,65.3,52.8,30.08,NE,48,0.0,1.0,64,0.00,,---,0.00,VWS V13.00,2013-05-20 23:00:00,
2013-05-20 16:05:00,65.3,49.7,30.08,South,188,0.0,3.0,57,0.00,,---,0.00,VWS V13.00,2013-05-20 23:05:00,
2013-05-20 16:10:00,65.5,50.8,30.07,SE,137,0.0,0.0,59,0.00,,---,0.00,VWS V13.00,2013-05-20 23:10:00,
2013-05-20 16:15:00,66.1,51.8,30.07,SE,134,0.0,0.0,60,0.00,,---,0.00,VWS V13.00,2013-05-20 23:15:00,
2013-05-20 16:20:00,66.1,50.9,30.07,North,0,0.0,2.0,58,0.00,,---,0.00,VWS V13.00,2013-05-20 23:20:00,
2013-05-20 16:25:00,66.1,51.8,30.06,ESE,116,1.0,5.0,60,0.00,,---,0.00,VWS V13.00,2013-05-20 23:25:00,
2013-05-20 16:30:00,66.1,52.7,30.06,SSE,150,0.0,5.0,62,0.00,,---,0.00,VWS V13.00,2013-05-20 23:30:00,
2013-05-20 16:35:00,66.0,50.8,30.06,WSW,254,0.0,5.0,58,0.00,,---,0.00,VWS V13.00,2013-05-20 23:35:00,
2013-05-20 16:40:00,66.3,51.6,30.05,East,93,0.0,1.0,59,0.00,,---,0.00,VWS V13.00,2013-05-20 23:40:00,
2013-05-20 16:45:00,66.4,50.7,30.05,South,186,0.0,3.0,57,0.00,,---,0.00,VWS V13.00,2013-05-20 23:45:00,
2013-05-20 16:50:00,66.4,50.2,30.05,South,176,0.0,3.0,56,0.00,,---,0.00,VWS V13.00,2013-05-20 23:50:00,
2013-05-20 16:55:00,66.4,52.6,30.04,SSW,195,0.0,3.0,61,0.00,,---,0.00,VWS V13.00,2013-05-20 23:55:00,
2013-05-20 17:00:00,66.3,51.6,30.04,NNE,20,0.0,3.0,59,0.00,,---,0.00,VWS V13.00,2013-05-21 00:00:00,
2013-05-20 17:05:00,66.3,51.6,30.04,SW,226,0.0,3.0,59,0.00,,---,0.00,VWS V13.00,2013-05-21 00:05:00,
2013-05-20 17:10:00,66.3,51.6,30.03,NNW,339,0.0,1.0,59,0.00,,---,0.00,VWS V13.00,2013-05-21 00:10:00,
2013-05-20 17:15:00,66.1,51.8,30.03,WSW,254,0.0,1.0,60,0.00,,---,0.00,VWS V13.00,2013-05-21 00:15:00,
2013-05-20 17:20:00,66.1,52.3,30.03,WSW,240,0.0,3.0,61,0.00,,---,0.00,VWS V13.00,2013-05-21 00:20:00,
2013-05-20 17:25:00,66.3,52.0,30.02,SW,230,0.0,3.0,60,0.00,,---,0.00,VWS V13.00,2013-05-21 00:25:00,
2013-05-20 17:30:00,66.4,51.7,30.02,South,179,0.0,3.0,59,0.00,,---,0.00,VWS V13.00,2013-05-21 00:30:00,
2013-05-20 17:35:00,66.4,51.7,30.02,South,179,0.0,3.0,59,0.00,,---,0.00,VWS V13.00,2013-05-21 00:35:00,
2013-05-20 17:40:00,66.4,51.7,30.01,South,179,0.0,0.0,59,0.00,,---,0.00,VWS V13.00,2013-05-21 00:40:00,
2013-05-20 17:45:00,66.8,52.5,30.01,South,179,0.0,0.0,60,0.00,,---,0.00,VWS V13.00,2013-05-21 00:45:00,
2013-05-20 17:50:00,66.9,53.0,30.01,NNW,342,0.0,0.0,61,0.00,,---,0.00,VWS V13.00,2013-05-21 00:50:00,
2013-05-20 17:55:00,66.8,52.5,30.00,WNW,292,0.0,1.0,60,0.00,,---,0.00,VWS V13.00,2013-05-21 00:55:00,
2013-05-20 18:00:00,66.6,51.8,30.00,WNW,292,0.0,1.0,59,0.00,,---,0.00,VWS V13.00,2013-05-21 01:00:00,
2013-05-20 18:05:00,66.6,51.4,30.00,West,268,0.0,2.0,58,0.00,,---,0.00,VWS V13.00,2013-05-21 01:05:00,
2013-05-20 18:10:00,66.3,51.1,30.00,SW,232,0.0,0.0,58,0.00,,---,0.00,VWS V13.00,2013-05-21 01:10:00,
2013-05-20 18:15:00,66.1,51.8,30.00,SW,232,0.0,0.0,60,0.00,,---,0.00,VWS V13.00,2013-05-21 01:15:00,
2013-05-20 18:20:00,65.6,50.9,30.00,ESE,120,0.0,0.0,59,0.00,,---,0.00,VWS V13.00,2013-05-21 01:20:00,
2013-05-20 18:25:00,65.6,51.8,29.99,ESE,120,0.0,0.0,61,0.00,,---,0.00,VWS V13.00,2013-05-21 01:25:00,
2013-05-20 18:30:00,65.5,53.4,29.99,ESE,120,0.0,0.0,65,0.00,,---,0.00,VWS V13.00,2013-05-21 01:30:00,
2013-05-20 18:35:00,65.3,52.8,29.99,ESE,120,0.0,0.0,64,0.00,,---,0.00,VWS V13.00,2013-05-21 01:35:00,
2013-05-20 18:40:00,65.3,53.7,29.99,ESE,120,0.0,0.0,66,0.00,,---,0.00,VWS V13.00,2013-05-21 01:40:00,
2013-05-20 18:45:00,65.2,53.6,29.99,ESE,120,0.0,0.0,66,0.00,,---,0.00,VWS V13.00,2013-05-21 01:45:00,
2013-05-20 18:50:00,64.8,53.6,29.99,ESE,120,0.0,0.0,67,0.00,,---,0.00,VWS V13.00,2013-05-21 01:50:00,
2013-05-20 18:55:00,64.7,54.3,29.98,ESE,120,0.0,0.0,69,0.00,,---,0.00,VWS V13.00,2013-05-21 01:55:00,
2013-05-20 19:00:00,64.3,54.7,29.98,ESE,120,0.0,0.0,71,0.00,,---,0.00,VWS V13.00,2013-05-21 02:00:00,
2013-05-20 19:05:00,64.2,55.0,29.98,ESE,120,0.0,0.0,72,0.00,,---,0.00,VWS V13.00,2013-05-21 02:05:00,
2013-05-20 19:10:00,63.9,54.7,29.98,ESE,120,0.0,0.0,72,0.00,,---,0.00,VWS V13.00,2013-05-21 02:10:00,
2013-05-20 19:15:00,63.5,54.3,29.98,ESE,120,0.0,0.0,72,0.00,,---,0.00,VWS V13.00,2013-05-21 02:15:00,
2013-05-20 19:20:00,63.2,54.4,29.98,ESE,120,0.0,0.0,73,0.00,,---,0.00,VWS V13.00,2013-05-21 02:20:00,
2013-05-20 19:25:00,63.1,53.9,29.97,ESE,120,0.0,0.0,72,0.00,,---,0.00,VWS V13.00,2013-05-21 02:25:00,
2013-05-20 19:30:00,62.7,54.3,29.97,ESE,120,0.0,0.0,74,0.00,,---,0.00,VWS V13.00,2013-05-21 02:30:00,
2013-05-20 19:35:00,62.4,54.0,29.97,ESE,120,0.0,0.0,74,0.00,,---,0.00,VWS V13.00,2013-05-21 02:35:00,
2013-05-20 19:40:00,62.1,54.1,29.97,ESE,120,0.0,0.0,75,0.00,,---,0.00,VWS V13.00,2013-05-21 02:40:00,
2013-05-20 19:45:00,61.8,54.2,29.97,ESE,120,0.0,0.0,76,0.00,,---,0.00,VWS V13.00,2013-05-21 02:45:00,
2013-05-20 19:50:00,61.6,54.3,29.97,ESE,120,0.0,0.0,77,0.00,,---,0.00,VWS V13.00,2013-05-21 02:50:00,
2013-05-20 19:55:00,61.3,54.0,29.97,ENE,68,0.0,0.0,77,0.00,,---,0.00,VWS V13.00,2013-05-21 02:55:00,
2013-05-20 20:00:00,61.2,53.9,29.97,ENE,68,0.0,0.0,77,0.00,,---,0.00,VWS V13.00,2013-05-21 03:00:00,
2013-05-20 20:05:00,61.0,54.1,29.97,ENE,68,0.0,0.0,78,0.00,,---,0.00,VWS V13.00,2013-05-21 03:05:00,
2013-05-20 20:10:00,60.7,54.2,29.97,ENE,68,0.0,0.0,79,0.00,,---,0.00,VWS V13.00,2013-05-21 03:10:00,
2013-05-20 20:15:00,60.5,54.0,29.97,ENE,68,0.0,0.0,79,0.00,,---,0.00,VWS V13.00,2013-05-21 03:15:00,
2013-05-20 20:20:00,60.4,53.9,29.97,ENE,68,0.0,0.0,79,0.00,,---,0.00,VWS V13.00,2013-05-21 03:20:00,
2013-05-20 20:25:00,60.1,53.2,29.96,ENE,68,0.0,0.0,78,0.00,,---,0.00,VWS V13.00,2013-05-21 03:25:00,
2013-05-20 20:30:00,59.9,53.0,29.96,ENE,68,0.0,0.0,78,0.00,,---,0.00,VWS V13.00,2013-05-21 03:30:00,
2013-05-20 20:35:00,59.8,53.3,29.96,ENE,68,0.0,0.0,79,0.00,,---,0.00,VWS V13.00,2013-05-21 03:35:00,
2013-05-20 20:39:00,59.5,53.0,29.96,ENE,68,0.0,0.0,79,0.00,,---,0.00,VWS V13.00,2013-05-21 03:39:00,
2013-05-20 20:44:00,59.5,53.0,29.96,ENE,68,0.0,0.0,79,0.00,,---,0.00,VWS V13.00,2013-05-21 03:44:00,
2013-05-20 20:49:00,59.3,53.1,29.96,ENE,68,0.0,0.0,80,0.00,,---,0.00,VWS V13.00,2013-05-21 03:49:00,
2013-05-20 20:54:00,59.2,53.0,29.96,ENE,68,0.0,0.0,80,0.00,,---,0.00,VWS V13.00,2013-05-21 03:54:00,
2013-05-20 20:59:00,59.0,52.8,29.96,ENE,68,0.0,0.0,80,0.00,,---,0.00,VWS V13.00,2013-05-21 03:59:00,
2013-05-20 21:01:00,58.9,52.8,29.96,ENE,68,0.0,0.0,80,0.00,,---,0.00,VWS V13.00,2013-05-21 04:01:00,
2013-05-20 21:06:00,58.7,52.6,29.95,ENE,68,0.0,0.0,80,0.00,,---,0.00,VWS V13.00,2013-05-21 04:06:00,
2013-05-20 21:11:00,58.6,52.8,29.95,ENE,68,0.0,0.0,81,0.00,,---,0.00,VWS V13.00,2013-05-21 04:11:00,
2013-05-20 21:16:00,58.6,52.8,29.95,ENE,68,0.0,0.0,81,0.00,,---,0.00,VWS V13.00,2013-05-21 04:16:00,
2013-05-20 21:21:00,58.4,52.6,29.95,ENE,68,0.0,0.0,81,0.00,,---,0.00,VWS V13.00,2013-05-21 04:21:00,
2013-05-20 21:26:00,58.3,52.5,29.95,ENE,68,0.0,0.0,81,0.00,,---,0.00,VWS V13.00,2013-05-21 04:26:00,
2013-05-20 21:31:00,58.1,52.6,29.95,ENE,68,0.0,0.0,82,0.00,,---,0.00,VWS V13.00,2013-05-21 04:31:00,
2013-05-20 21:36:00,58.1,52.3,29.95,ENE,68,0.0,0.0,81,0.00,,---,0.00,VWS V13.00,2013-05-21 04:36:00,
2013-05-20 21:41:00,58.0,51.9,29.95,ENE,68,0.0,0.0,80,0.00,,---,0.00,VWS V13.00,2013-05-21 04:41:00,
2013-05-20 21:46:00,57.8,51.0,29.95,ENE,64,0.0,0.0,78,0.00,,---,0.00,VWS V13.00,2013-05-21 04:46:00,
2013-05-20 21:51:00,57.6,50.1,29.95,ENE,68,0.0,0.0,76,0.00,,---,0.00,VWS V13.00,2013-05-21 04:51:00,
2013-05-20 21:56:00,57.5,50.4,29.95,ENE,68,0.0,0.0,77,0.00,,---,0.00,VWS V13.00,2013-05-21 04:56:00,
2013-05-20 22:01:00,57.3,50.2,29.95,ENE,68,0.0,0.0,77,0.00,,---,0.00,VWS V13.00,2013-05-21 05:01:00,
2013-05-20 22:06:00,57.2,50.1,29.94,ENE,68,0.0,0.0,77,0.00,,---,0.00,VWS V13.00,2013-05-21 05:06:00,
2013-05-20 22:11:00,57.2,49.7,29.94,ENE,68,0.0,0.0,76,0.00,,---,0.00,VWS V13.00,2013-05-21 05:11:00,
2013-05-20 22:16:00,56.9,48.7,29.94,ENE,68,0.0,0.0,74,0.00,,---,0.00,VWS V13.00,2013-05-21 05:16:00,
2013-05-20 22:21:00,56.7,47.8,29.94,ENE,68,0.0,0.0,72,0.00,,---,0.00,VWS V13.00,2013-05-21 05:21:00,
2013-05-20 22:26:00,56.7,47.8,29.94,ENE,68,0.0,0.0,72,0.00,,---,0.00,VWS V13.00,2013-05-21 05:26:00,
2013-05-20 22:31:00,56.6,47.7,29.94,ENE,68,0.0,0.0,72,0.00,,---,0.00,VWS V13.00,2013-05-21 05:31:00,
2013-05-20 22:36:00,56.6,48.4,29.93,ENE,68,0.0,0.0,74,0.00,,---,0.00,VWS V13.00,2013-05-21 05:36:00,
2013-05-20 22:41:00,56.5,48.3,29.93,ENE,68,0.0,0.0,74,0.00,,---,0.00,VWS V13.00,2013-05-21 05:41:00,
2013-05-20 22:46:00,56.5,49.0,29.93,ENE,68,0.0,0.0,76,0.00,,---,0.00,VWS V13.00,2013-05-21 05:46:00,
2013-05-20 22:51:00,56.3,48.5,29.93,ENE,68,0.0,0.0,75,0.00,,---,0.00,VWS V13.00,2013-05-21 05:51:00,
2013-05-20 22:56:00,56.3,48.8,29.93,ENE,68,0.0,0.0,76,0.00,,---,0.00,VWS V13.00,2013-05-21 05:56:00,
2013-05-20 23:01:00,56.2,49.1,29.93,ENE,68,0.0,0.0,77,0.00,,---,0.00,VWS V13.00,2013-05-21 06:01:00,
2013-05-20 23:06:00,56.2,48.8,29.93,ENE,68,0.0,0.0,76,0.00,,---,0.00,VWS V13.00,2013-05-21 06:06:00,
2013-05-20 23:11:00,56.0,48.9,29.93,ENE,68,0.0,0.0,77,0.00,,---,0.00,VWS V13.00,2013-05-21 06:11:00,
2013-05-20 23:16:00,55.9,48.8,29.93,ENE,68,0.0,0.0,77,0.00,,---,0.00,VWS V13.00,2013-05-21 06:16:00,
2013-05-20 23:21:00,55.7,48.3,29.92,ENE,68,0.0,0.0,76,0.00,,---,0.00,VWS V13.00,2013-05-21 06:21:00,
2013-05-20 23:26:00,55.7,48.6,29.92,ENE,68,0.0,0.0,77,0.00,,---,0.00,VWS V13.00,2013-05-21 06:26:00,
2013-05-20 23:31:00,55.7,49.0,29.92,ENE,68,0.0,0.0,78,0.00,,---,0.00,VWS V13.00,2013-05-21 06:31:00,
2013-05-20 23:36:00,55.6,49.2,29.92,ENE,68,0.0,0.0,79,0.00,,---,0.00,VWS V13.00,2013-05-21 06:36:00,
2013-05-20 23:41:00,55.6,49.2,29.92,ENE,68,0.0,0.0,79,0.00,,---,0.00,VWS V13.00,2013-05-21 06:41:00,
2013-05-20 23:46:00,55.4,49.3,29.92,ENE,68,0.0,0.0,80,0.00,,---,0.00,VWS V13.00,2013-05-21 06:46:00,
2013-05-20 23:51:00,55.4,49.3,29.92,ENE,68,0.0,0.0,80,0.00,,---,0.00,VWS V13.00,2013-05-21 06:51:00,
2013-05-20 23:56:00,55.3,49.2,29.92,ENE,68,0.0,0.0,80,0.00,,---,0.00,VWS V13.00,2013-05-21 06:56:00,